sensor_id;sensor_type;location;lat;lon;timestamp;pressure;altitude;pressure_sealevel;temperature;humidity
62833;BME280;48891;49.220;6.920;2023-12-07T00:00:18;99395.56;;;10.58;65.00
62833;BME280;48891;49.220;6.920;2023-12-07T00:02:43;99298.13;;;10.00;65.00
62833;BME280;48891;49.220;6.920;2023-12-07T00:05:08;99340.88;;;10.25;64.82
62833;BME280;48891;49.220;6.920;2023-12-07T00:07:34;99392.94;;;10.58;64.89
62833;BME280;48891;49.220;6.920;2023-12-07T00:09:59;99396.44;;;10.59;64.80
62833;BME280;48891;49.220;6.920;2023-12-07T00:12:24;99388.63;;;10.57;64.75
62833;BME280;48891;49.220;6.920;2023-12-07T00:14:49;99395.56;;;10.58;64.85
62833;BME280;48891;49.220;6.920;2023-12-07T00:17:15;99393.09;;;10.55;64.83
62833;BME280;48891;49.220;6.920;2023-12-07T00:19:40;99388.81;;;10.53;64.77
62833;BME280;48891;49.220;6.920;2023-12-07T00:22:05;99398.22;;;10.58;64.89
62833;BME280;48891;49.220;6.920;2023-12-07T00:24:30;99373.44;;;10.43;64.88
62833;BME280;48891;49.220;6.920;2023-12-07T00:26:56;99399.88;;;10.61;64.97
62833;BME280;48891;49.220;6.920;2023-12-07T00:29:21;99388.47;;;10.41;64.77
62833;BME280;48891;49.220;6.920;2023-12-07T00:31:46;99399.16;;;10.57;64.87
62833;BME280;48891;49.220;6.920;2023-12-07T00:34:12;99401.72;;;10.59;64.93
62833;BME280;48891;49.220;6.920;2023-12-07T00:36:37;99401.72;;;10.59;64.98
62833;BME280;48891;49.220;6.920;2023-12-07T00:39:02;99403.47;;;10.58;64.86
62833;BME280;48891;49.220;6.920;2023-12-07T00:41:27;99402.56;;;10.59;64.74
62833;BME280;48891;49.220;6.920;2023-12-07T00:43:53;99402.63;;;10.58;64.89
62833;BME280;48891;49.220;6.920;2023-12-07T00:46:18;99373.44;;;10.43;65.10
62833;BME280;48891;49.220;6.920;2023-12-07T00:48:43;99406.13;;;10.58;64.84
62833;BME280;48891;49.220;6.920;2023-12-07T00:51:09;99398.22;;;10.58;64.86
62833;BME280;48891;49.220;6.920;2023-12-07T00:53:34;99400.00;;;10.58;64.90
62833;BME280;48891;49.220;6.920;2023-12-07T00:56:00;99397.38;;;10.58;64.95
62833;BME280;48891;49.220;6.920;2023-12-07T00:58:25;99398.22;;;10.58;64.74
62833;BME280;48891;49.220;6.920;2023-12-07T01:00:51;99397.38;;;10.58;64.89
62833;BME280;48891;49.220;6.920;2023-12-07T01:03:16;99386.13;;;10.54;64.96
62833;BME280;48891;49.220;6.920;2023-12-07T01:05:41;99386.81;;;10.58;64.90
62833;BME280;48891;49.220;6.920;2023-12-07T01:08:06;99307.63;;;10.04;65.12
62833;BME280;48891;49.220;6.920;2023-12-07T01:10:31;99401.72;;;10.59;65.05
62833;BME280;48891;49.220;6.920;2023-12-07T01:12:57;99404.34;;;10.59;64.76
62833;BME280;48891;49.220;6.920;2023-12-07T01:15:22;99412.28;;;10.59;64.75
62833;BME280;48891;49.220;6.920;2023-12-07T01:17:47;99406.13;;;10.58;64.84
62833;BME280;48891;49.220;6.920;2023-12-07T01:20:12;99405.28;;;10.58;64.80
62833;BME280;48891;49.220;6.920;2023-12-07T01:22:41;99405.28;;;10.58;64.83
62833;BME280;48891;49.220;6.920;2023-12-07T01:25:06;99415.81;;;10.58;64.84
62833;BME280;48891;49.220;6.920;2023-12-07T01:27:31;99397.75;;;10.50;64.84
62833;BME280;48891;49.220;6.920;2023-12-07T01:29:57;99412.34;;;10.57;64.71
62833;BME280;48891;49.220;6.920;2023-12-07T01:32:22;99415.03;;;10.56;64.95
62833;BME280;48891;49.220;6.920;2023-12-07T01:34:47;99422.00;;;10.57;64.97
62833;BME280;48891;49.220;6.920;2023-12-07T01:37:12;99333.38;;;9.97;64.93
62833;BME280;48891;49.220;6.920;2023-12-07T01:39:38;99425.59;;;10.56;64.83
62833;BME280;48891;49.220;6.920;2023-12-07T01:42:03;99427.22;;;10.58;64.98
62833;BME280;48891;49.220;6.920;2023-12-07T01:44:28;99431.63;;;10.58;64.93
62833;BME280;48891;49.220;6.920;2023-12-07T01:46:53;99435.13;;;10.58;64.89
62833;BME280;48891;49.220;6.920;2023-12-07T01:49:19;99434.34;;;10.56;64.79
62833;BME280;48891;49.220;6.920;2023-12-07T01:51:45;99371.78;;;10.22;64.80
62833;BME280;48891;49.220;6.920;2023-12-07T01:54:10;99424.88;;;10.52;65.01
62833;BME280;48891;49.220;6.920;2023-12-07T01:56:36;99433.44;;;10.57;64.77
62833;BME280;48891;49.220;6.920;2023-12-07T01:59:01;99425.53;;;10.57;64.83
62833;BME280;48891;49.220;6.920;2023-12-07T02:01:27;99416.97;;;10.52;64.62
62833;BME280;48891;49.220;6.920;2023-12-07T02:03:52;99427.22;;;10.58;65.03
62833;BME280;48891;49.220;6.920;2023-12-07T02:06:18;99432.56;;;10.57;64.99
62833;BME280;48891;49.220;6.920;2023-12-07T02:08:43;99440.41;;;10.58;64.88
62833;BME280;48891;49.220;6.920;2023-12-07T02:11:08;99435.41;;;10.52;65.06
62833;BME280;48891;49.220;6.920;2023-12-07T02:13:37;99423.94;;;10.53;64.63
62833;BME280;48891;49.220;6.920;2023-12-07T02:16:29;99440.41;;;10.58;64.89
62833;BME280;48891;49.220;6.920;2023-12-07T02:20:21;99436.97;;;10.56;64.93
62833;BME280;48891;49.220;6.920;2023-12-07T02:22:25;99419.03;;;10.45;64.99
62833;BME280;48891;49.220;6.920;2023-12-07T02:25:04;99434.41;;;10.55;64.84
62833;BME280;48891;49.220;6.920;2023-12-07T02:30:06;99437.81;;;10.57;64.81
62833;BME280;48891;49.220;6.920;2023-12-07T02:32:32;99435.19;;;10.57;64.73
62833;BME280;48891;49.220;6.920;2023-12-07T02:34:57;99439.75;;;10.53;64.78
62833;BME280;48891;49.220;6.920;2023-12-07T02:37:24;99441.34;;;10.57;64.64
62833;BME280;48891;49.220;6.920;2023-12-07T02:39:52;99431.13;;;10.50;64.78
62833;BME280;48891;49.220;6.920;2023-12-07T02:42:19;99426.56;;;10.53;64.65
62833;BME280;48891;49.220;6.920;2023-12-07T02:44:45;99435.19;;;10.57;64.94
62833;BME280;48891;49.220;6.920;2023-12-07T02:47:11;99427.38;;;10.55;64.79
62833;BME280;48891;49.220;6.920;2023-12-07T02:49:36;99417.09;;;10.49;64.87
62833;BME280;48891;49.220;6.920;2023-12-07T02:52:01;99423.78;;;10.56;64.74
62833;BME280;48891;49.220;6.920;2023-12-07T02:54:26;99426.44;;;10.56;64.66
62833;BME280;48891;49.220;6.920;2023-12-07T02:56:52;99431.72;;;10.56;64.88
62833;BME280;48891;49.220;6.920;2023-12-07T02:59:17;99413.69;;;10.47;64.73
62833;BME280;48891;49.220;6.920;2023-12-07T03:01:42;99428.22;;;10.56;64.71
62833;BME280;48891;49.220;6.920;2023-12-07T03:04:07;99426.44;;;10.56;64.88
62833;BME280;48891;49.220;6.920;2023-12-07T03:06:33;99423.88;;;10.55;64.67
62833;BME280;48891;49.220;6.920;2023-12-07T03:08:58;99428.22;;;10.56;64.65
62833;BME280;48891;49.220;6.920;2023-12-07T03:11:24;99312.56;;;9.91;64.59
62833;BME280;48891;49.220;6.920;2023-12-07T03:13:49;99415.25;;;10.51;64.63
62833;BME280;48891;49.220;6.920;2023-12-07T03:16:14;99415.03;;;10.56;64.65
62833;BME280;48891;49.220;6.920;2023-12-07T03:18:40;99416.13;;;10.52;64.63
62833;BME280;48891;49.220;6.920;2023-12-07T03:21:05;99418.66;;;10.53;64.64
62833;BME280;48891;49.220;6.920;2023-12-07T03:23:30;99403.66;;;10.55;64.77
62833;BME280;48891;49.220;6.920;2023-12-07T03:25:55;99404.63;;;10.53;64.48
62833;BME280;48891;49.220;6.920;2023-12-07T03:28:21;99408.03;;;10.55;64.60
62833;BME280;48891;49.220;6.920;2023-12-07T03:30:46;99339.66;;;10.14;64.83
62833;BME280;48891;49.220;6.920;2023-12-07T03:33:11;99402.94;;;10.52;64.75
62833;BME280;48891;49.220;6.920;2023-12-07T03:35:36;99405.56;;;10.52;64.59
62833;BME280;48891;49.220;6.920;2023-12-07T03:38:02;99388.41;;;10.43;64.58
62833;BME280;48891;49.220;6.920;2023-12-07T03:40:27;99411.63;;;10.54;64.56
62833;BME280;48891;49.220;6.920;2023-12-07T03:42:52;99414.34;;;10.52;64.72
62833;BME280;48891;49.220;6.920;2023-12-07T03:45:17;99407.25;;;10.53;64.53
62833;BME280;48891;49.220;6.920;2023-12-07T03:47:42;99413.38;;;10.53;64.60
62833;BME280;48891;49.220;6.920;2023-12-07T03:50:08;99411.69;;;10.52;64.79
62833;BME280;48891;49.220;6.920;2023-12-07T03:52:33;99421.28;;;10.53;64.37
62833;BME280;48891;49.220;6.920;2023-12-07T03:54:58;99420.44;;;10.53;64.67
62833;BME280;48891;49.220;6.920;2023-12-07T03:57:24;99425.72;;;10.53;64.71
62833;BME280;48891;49.220;6.920;2023-12-07T03:59:49;99406.69;;;10.46;64.71
62833;BME280;48891;49.220;6.920;2023-12-07T04:02:14;99418.81;;;10.50;64.65
62833;BME280;48891;49.220;6.920;2023-12-07T04:04:39;99417.81;;;10.53;64.73
62833;BME280;48891;49.220;6.920;2023-12-07T04:07:05;99417.81;;;10.53;64.52
62833;BME280;48891;49.220;6.920;2023-12-07T04:09:30;99407.25;;;10.53;64.30
62833;BME280;48891;49.220;6.920;2023-12-07T04:11:55;99356.94;;;10.19;64.46
62833;BME280;48891;49.220;6.920;2023-12-07T04:14:20;99412.53;;;10.53;64.42
62833;BME280;48891;49.220;6.920;2023-12-07T04:16:45;99403.16;;;10.47;64.64
62833;BME280;48891;49.220;6.920;2023-12-07T04:19:11;99405.56;;;10.52;64.74
62833;BME280;48891;49.220;6.920;2023-12-07T04:21:36;99406.41;;;10.52;64.53
62833;BME280;48891;49.220;6.920;2023-12-07T04:24:01;99393.69;;;10.43;64.60
62833;BME280;48891;49.220;6.920;2023-12-07T04:26:26;99414.34;;;10.52;64.62
62833;BME280;48891;49.220;6.920;2023-12-07T04:28:52;99406.41;;;10.52;64.62
62833;BME280;48891;49.220;6.920;2023-12-07T04:31:17;99408.22;;;10.52;64.53
62833;BME280;48891;49.220;6.920;2023-12-07T04:33:42;99407.25;;;10.53;64.50
62833;BME280;48891;49.220;6.920;2023-12-07T04:36:08;99403.00;;;10.50;64.47
62833;BME280;48891;49.220;6.920;2023-12-07T04:38:33;99409.97;;;10.51;64.57
62833;BME280;48891;49.220;6.920;2023-12-07T04:40:58;99410.97;;;10.49;64.45
62833;BME280;48891;49.220;6.920;2023-12-07T04:43:23;99423.16;;;10.51;64.50
62833;BME280;48891;49.220;6.920;2023-12-07T04:45:49;99428.44;;;10.51;64.59
62833;BME280;48891;49.220;6.920;2023-12-07T04:48:14;99330.22;;;9.89;64.55
62833;BME280;48891;49.220;6.920;2023-12-07T04:50:39;99415.47;;;10.47;64.43
62833;BME280;48891;49.220;6.920;2023-12-07T04:53:04;99421.41;;;10.52;64.41
62833;BME280;48891;49.220;6.920;2023-12-07T04:55:30;99424.88;;;10.52;64.36
62833;BME280;48891;49.220;6.920;2023-12-07T04:57:55;99419.66;;;10.51;64.55
62833;BME280;48891;49.220;6.920;2023-12-07T05:00:20;99414.59;;;10.46;64.52
62833;BME280;48891;49.220;6.920;2023-12-07T05:02:46;99415.47;;;10.47;64.50
62833;BME280;48891;49.220;6.920;2023-12-07T05:05:11;99421.47;;;10.50;64.45
62833;BME280;48891;49.220;6.920;2023-12-07T05:07:36;99425.84;;;10.50;64.66
62833;BME280;48891;49.220;6.920;2023-12-07T05:10:01;99431.19;;;10.48;64.39
62833;BME280;48891;49.220;6.920;2023-12-07T05:12:27;99437.28;;;10.50;64.56
62833;BME280;48891;49.220;6.920;2023-12-07T05:14:52;99439.09;;;10.48;64.59
62833;BME280;48891;49.220;6.920;2023-12-07T05:17:17;99448.72;;;10.49;64.34
62833;BME280;48891;49.220;6.920;2023-12-07T05:19:44;99455.72;;;10.50;64.55
62833;BME280;48891;49.220;6.920;2023-12-07T05:22:09;99455.72;;;10.50;64.41
62833;BME280;48891;49.220;6.920;2023-12-07T05:24:35;99464.47;;;10.51;64.54
62833;BME280;48891;49.220;6.920;2023-12-07T05:27:00;99447.81;;;10.50;64.54
62833;BME280;48891;49.220;6.920;2023-12-07T05:29:25;99446.94;;;10.50;64.51
62833;BME280;48891;49.220;6.920;2023-12-07T05:31:51;99450.53;;;10.49;64.21
62833;BME280;48891;49.220;6.920;2023-12-07T05:34:17;99440.81;;;10.49;64.46
62833;BME280;48891;49.220;6.920;2023-12-07T05:36:42;99444.31;;;10.50;64.32
62833;BME280;48891;49.220;6.920;2023-12-07T05:39:07;99444.31;;;10.50;64.51
62833;BME280;48891;49.220;6.920;2023-12-07T05:41:33;99441.75;;;10.48;64.51
62833;BME280;48891;49.220;6.920;2023-12-07T05:43:58;99438.19;;;10.49;64.46
62833;BME280;48891;49.220;6.920;2023-12-07T05:46:23;99431.28;;;10.47;64.59
62833;BME280;48891;49.220;6.920;2023-12-07T05:48:49;99426.81;;;10.49;64.56
62833;BME280;48891;49.220;6.920;2023-12-07T05:51:16;99407.91;;;10.39;64.40
62833;BME280;48891;49.220;6.920;2023-12-07T05:53:41;99402.38;;;10.45;64.30
62833;BME280;48891;49.220;6.920;2023-12-07T05:56:07;99407.47;;;10.48;64.45
62833;BME280;48891;49.220;6.920;2023-12-07T05:58:33;99405.72;;;10.49;64.71
62833;BME280;48891;49.220;6.920;2023-12-07T06:01:00;99407.47;;;10.48;64.39
62833;BME280;48891;49.220;6.920;2023-12-07T06:03:25;99383.41;;;10.37;64.27
62833;BME280;48891;49.220;6.920;2023-12-07T06:05:51;99390.41;;;10.38;64.47
62833;BME280;48891;49.220;6.920;2023-12-07T06:08:17;99397.16;;;10.43;64.42
62833;BME280;48891;49.220;6.920;2023-12-07T06:10:42;99413.63;;;10.49;64.34
62833;BME280;48891;49.220;6.920;2023-12-07T06:13:07;99417.16;;;10.48;64.45
62833;BME280;48891;49.220;6.920;2023-12-07T06:15:33;99409.25;;;10.48;64.32
62833;BME280;48891;49.220;6.920;2023-12-07T06:17:58;99412.75;;;10.48;64.34
62833;BME280;48891;49.220;6.920;2023-12-07T06:20:23;99413.63;;;10.49;63.91
62833;BME280;48891;49.220;6.920;2023-12-07T06:22:49;99416.31;;;10.47;64.43
62833;BME280;48891;49.220;6.920;2023-12-07T06:25:14;99433.81;;;10.48;64.39
62833;BME280;48891;49.220;6.920;2023-12-07T06:27:39;99427.72;;;10.48;64.41
62833;BME280;48891;49.220;6.920;2023-12-07T06:30:07;99429.50;;;10.47;64.59
62833;BME280;48891;49.220;6.920;2023-12-07T06:32:33;99425.38;;;10.41;64.73
62833;BME280;48891;49.220;6.920;2023-12-07T06:34:58;99433.94;;;10.47;64.77
62833;BME280;48891;49.220;6.920;2023-12-07T06:37:24;99432.13;;;10.47;64.72
62833;BME280;48891;49.220;6.920;2023-12-07T06:39:49;99397.03;;;10.26;65.01
62833;BME280;48891;49.220;6.920;2023-12-07T06:42:14;99435.84;;;10.43;65.40
62833;BME280;48891;49.220;6.920;2023-12-07T06:44:39;99440.03;;;10.47;65.52
62833;BME280;48891;49.220;6.920;2023-12-07T06:47:05;99448.81;;;10.48;65.50
62833;BME280;48891;49.220;6.920;2023-12-07T06:49:30;99442.75;;;10.45;65.57
62833;BME280;48891;49.220;6.920;2023-12-07T06:51:55;99362.69;;;9.89;65.71
62833;BME280;48891;49.220;6.920;2023-12-07T06:54:21;99451.66;;;10.43;65.80
62833;BME280;48891;49.220;6.920;2023-12-07T06:56:46;99318.09;;;9.66;65.73
62833;BME280;48891;49.220;6.920;2023-12-07T06:59:11;99445.31;;;10.47;65.94
62833;BME280;48891;49.220;6.920;2023-12-07T07:01:36;99434.78;;;10.47;66.06
62833;BME280;48891;49.220;6.920;2023-12-07T07:04:02;99433.94;;;10.47;66.18
62833;BME280;48891;49.220;6.920;2023-12-07T07:06:27;99428.72;;;10.45;66.10
62833;BME280;48891;49.220;6.920;2023-12-07T07:08:52;99426.88;;;10.47;65.91
62833;BME280;48891;49.220;6.920;2023-12-07T07:11:17;99432.13;;;10.47;66.16
62833;BME280;48891;49.220;6.920;2023-12-07T07:13:43;99426.88;;;10.47;65.84
62833;BME280;48891;49.220;6.920;2023-12-07T07:16:08;99331.31;;;9.85;65.72
62833;BME280;48891;49.220;6.920;2023-12-07T07:18:33;99428.72;;;10.45;65.87
62833;BME280;48891;49.220;6.920;2023-12-07T07:20:59;99421.72;;;10.44;66.16
62833;BME280;48891;49.220;6.920;2023-12-07T07:23:24;99429.50;;;10.47;66.07
62833;BME280;48891;49.220;6.920;2023-12-07T07:25:49;99426.94;;;10.45;66.11
62833;BME280;48891;49.220;6.920;2023-12-07T07:28:15;99425.22;;;10.44;66.21
62833;BME280;48891;49.220;6.920;2023-12-07T07:30:40;99416.44;;;10.44;65.99
62833;BME280;48891;49.220;6.920;2023-12-07T07:33:05;99416.53;;;10.42;66.12
62833;BME280;48891;49.220;6.920;2023-12-07T07:35:30;99413.75;;;10.45;66.00
62833;BME280;48891;49.220;6.920;2023-12-07T07:37:56;99409.56;;;10.41;66.17
62833;BME280;48891;49.220;6.920;2023-12-07T07:40:21;99410.22;;;10.47;66.26
62833;BME280;48891;49.220;6.920;2023-12-07T07:42:46;99405.00;;;10.45;66.05
62833;BME280;48891;49.220;6.920;2023-12-07T07:45:11;99401.41;;;10.46;66.05
62833;BME280;48891;49.220;6.920;2023-12-07T07:47:37;99402.38;;;10.45;65.91
62833;BME280;48891;49.220;6.920;2023-12-07T07:50:02;99407.63;;;10.45;65.92
62833;BME280;48891;49.220;6.920;2023-12-07T07:52:27;99383.59;;;10.32;65.96
62833;BME280;48891;49.220;6.920;2023-12-07T07:54:52;99414.75;;;10.43;65.94
62833;BME280;48891;49.220;6.920;2023-12-07T07:57:18;99418.19;;;10.45;65.92
62833;BME280;48891;49.220;6.920;2023-12-07T07:59:43;99405.91;;;10.44;65.77
62833;BME280;48891;49.220;6.920;2023-12-07T08:02:08;99410.53;;;10.39;65.82
62833;BME280;48891;49.220;6.920;2023-12-07T08:04:33;99406.75;;;10.44;65.80
62833;BME280;48891;49.220;6.920;2023-12-07T08:06:59;99394.53;;;10.43;65.77
62833;BME280;48891;49.220;6.920;2023-12-07T08:09:24;99402.38;;;10.45;65.75
62833;BME280;48891;49.220;6.920;2023-12-07T08:11:49;99402.38;;;10.45;65.82
62833;BME280;48891;49.220;6.920;2023-12-07T08:14:14;99396.22;;;10.44;65.85
62833;BME280;48891;49.220;6.920;2023-12-07T08:16:44;99393.56;;;10.44;65.71
62833;BME280;48891;49.220;6.920;2023-12-07T08:19:09;99387.41;;;10.45;65.56
62833;BME280;48891;49.220;6.920;2023-12-07T08:21:34;99325.81;;;10.08;65.39
62833;BME280;48891;49.220;6.920;2023-12-07T08:24:00;99387.47;;;10.44;65.95
62833;BME280;48891;49.220;6.920;2023-12-07T08:26:25;99388.41;;;10.43;65.76
62833;BME280;48891;49.220;6.920;2023-12-07T08:28:50;99373.13;;;10.31;65.38
62833;BME280;48891;49.220;6.920;2023-12-07T08:31:15;99384.81;;;10.44;65.77
62833;BME280;48891;49.220;6.920;2023-12-07T08:33:40;99383.97;;;10.43;65.54
62833;BME280;48891;49.220;6.920;2023-12-07T08:36:06;99392.72;;;10.44;65.53
62833;BME280;48891;49.220;6.920;2023-12-07T08:38:32;99398.94;;;10.43;65.67
62833;BME280;48891;49.220;6.920;2023-12-07T08:40:57;99392.81;;;10.42;65.62
62833;BME280;48891;49.220;6.920;2023-12-07T08:43:24;99338.94;;;10.10;65.50
62833;BME280;48891;49.220;6.920;2023-12-07T08:45:52;99390.09;;;10.44;65.59
62833;BME280;48891;49.220;6.920;2023-12-07T08:48:19;99388.41;;;10.43;65.46
62833;BME280;48891;49.220;6.920;2023-12-07T08:50:44;99381.41;;;10.42;65.58
62833;BME280;48891;49.220;6.920;2023-12-07T08:53:09;99386.63;;;10.43;65.50
62833;BME280;48891;49.220;6.920;2023-12-07T08:55:34;99390.09;;;10.44;65.50
62833;BME280;48891;49.220;6.920;2023-12-07T08:58:00;99380.50;;;10.43;65.50
62833;BME280;48891;49.220;6.920;2023-12-07T09:00:25;99388.31;;;10.44;65.42
62833;BME280;48891;49.220;6.920;2023-12-07T09:02:50;99395.38;;;10.44;65.28
62833;BME280;48891;49.220;6.920;2023-12-07T09:05:16;99378.72;;;10.43;65.34
62833;BME280;48891;49.220;6.920;2023-12-07T09:07:41;99383.13;;;10.43;65.35
62833;BME280;48891;49.220;6.920;2023-12-07T09:10:07;99359.41;;;10.43;65.40
62833;BME280;48891;49.220;6.920;2023-12-07T09:12:32;99365.59;;;10.42;65.10
62833;BME280;48891;49.220;6.920;2023-12-07T09:14:58;99370.75;;;10.45;65.30
62833;BME280;48891;49.220;6.920;2023-12-07T09:17:23;99366.44;;;10.42;65.10
62833;BME280;48891;49.220;6.920;2023-12-07T09:19:48;99367.22;;;10.44;65.37
62833;BME280;48891;49.220;6.920;2023-12-07T09:22:13;99363.75;;;10.44;65.34
62833;BME280;48891;49.220;6.920;2023-12-07T09:24:39;99355.97;;;10.41;65.22
62833;BME280;48891;49.220;6.920;2023-12-07T09:27:05;99357.63;;;10.43;64.96
62833;BME280;48891;49.220;6.920;2023-12-07T09:29:30;99359.31;;;10.44;65.17
62833;BME280;48891;49.220;6.920;2023-12-07T09:31:55;99348.88;;;10.43;65.15
62833;BME280;48891;49.220;6.920;2023-12-07T09:34:20;99347.22;;;10.40;64.99
62833;BME280;48891;49.220;6.920;2023-12-07T09:36:46;99346.25;;;10.43;64.86
62833;BME280;48891;49.220;6.920;2023-12-07T09:39:11;99340.09;;;10.42;65.08
62833;BME280;48891;49.220;6.920;2023-12-07T09:41:37;99336.47;;;10.45;65.03
62833;BME280;48891;49.220;6.920;2023-12-07T09:44:04;99330.31;;;10.44;64.88
62833;BME280;48891;49.220;6.920;2023-12-07T09:46:29;99315.03;;;10.34;64.84
62833;BME280;48891;49.220;6.920;2023-12-07T09:48:55;99339.19;;;10.43;64.89
62833;BME280;48891;49.220;6.920;2023-12-07T09:51:21;99316.75;;;10.35;64.93
62833;BME280;48891;49.220;6.920;2023-12-07T09:53:48;99336.53;;;10.43;64.79
62833;BME280;48891;49.220;6.920;2023-12-07T09:56:15;99326.84;;;10.44;64.63
62833;BME280;48891;49.220;6.920;2023-12-07T09:58:40;99323.28;;;10.45;64.86
62833;BME280;48891;49.220;6.920;2023-12-07T10:01:06;99311.97;;;10.43;64.57
62833;BME280;48891;49.220;6.920;2023-12-07T10:03:31;99320.66;;;10.45;64.89
62833;BME280;48891;49.220;6.920;2023-12-07T10:05:59;99309.41;;;10.41;64.73
62833;BME280;48891;49.220;6.920;2023-12-07T10:08:25;99316.28;;;10.44;64.62
62833;BME280;48891;49.220;6.920;2023-12-07T10:11:07;99208.81;;;9.76;64.49
62833;BME280;48891;49.220;6.920;2023-12-07T10:13:34;99306.19;;;10.35;64.65
62833;BME280;48891;49.220;6.920;2023-12-07T10:16:13;99313.72;;;10.42;64.63
62833;BME280;48891;49.220;6.920;2023-12-07T10:18:39;99318.03;;;10.45;64.70
62833;BME280;48891;49.220;6.920;2023-12-07T10:21:04;99224.19;;;9.85;64.45
62833;BME280;48891;49.220;6.920;2023-12-07T10:23:30;99230.16;;;9.89;64.37
62833;BME280;48891;49.220;6.920;2023-12-07T10:25:55;99307.75;;;10.39;64.44
62833;BME280;48891;49.220;6.920;2023-12-07T10:28:20;99310.13;;;10.45;64.48
62833;BME280;48891;49.220;6.920;2023-12-07T10:30:46;99298.09;;;10.39;64.50
62833;BME280;48891;49.220;6.920;2023-12-07T10:33:11;99294.28;;;10.45;64.50
62833;BME280;48891;49.220;6.920;2023-12-07T10:35:39;99289.03;;;10.45;64.30
62833;BME280;48891;49.220;6.920;2023-12-07T10:38:05;99265.44;;;10.42;64.46
62833;BME280;48891;49.220;6.920;2023-12-07T10:40:30;99266.09;;;10.47;64.31
62833;BME280;48891;49.220;6.920;2023-12-07T10:42:58;99265.13;;;10.48;64.30
62833;BME280;48891;49.220;6.920;2023-12-07T10:45:24;99269.56;;;10.48;64.34
62833;BME280;48891;49.220;6.920;2023-12-07T10:47:51;99152.25;;;9.85;64.35
62833;BME280;48891;49.220;6.920;2023-12-07T10:50:21;99254.53;;;10.50;64.21
62833;BME280;48891;49.220;6.920;2023-12-07T10:52:51;99247.41;;;10.52;64.11
62833;BME280;48891;49.220;6.920;2023-12-07T10:55:20;99237.78;;;10.51;64.17
62833;BME280;48891;49.220;6.920;2023-12-07T10:57:47;99231.59;;;10.52;64.15
62833;BME280;48891;49.220;6.920;2023-12-07T11:00:12;99227.31;;;10.49;64.08
62833;BME280;48891;49.220;6.920;2023-12-07T11:02:38;99092.44;;;9.69;64.14
62833;BME280;48891;49.220;6.920;2023-12-07T11:05:04;99228.88;;;10.53;64.10
62833;BME280;48891;49.220;6.920;2023-12-07T11:08:05;99229.66;;;10.55;63.99
62833;BME280;48891;49.220;6.920;2023-12-07T11:10:45;99223.50;;;10.55;64.11
62833;BME280;48891;49.220;6.920;2023-12-07T11:13:26;99092.03;;;9.77;63.86
62833;BME280;48891;49.220;6.920;2023-12-07T11:15:53;99217.41;;;10.54;63.77
62833;BME280;48891;49.220;6.920;2023-12-07T11:18:19;99210.25;;;10.56;63.99
62833;BME280;48891;49.220;6.920;2023-12-07T11:20:45;99206.72;;;10.57;63.88
62833;BME280;48891;49.220;6.920;2023-12-07T11:23:11;99199.56;;;10.59;63.96
62833;BME280;48891;49.220;6.920;2023-12-07T11:25:37;99195.91;;;10.62;63.89
62833;BME280;48891;49.220;6.920;2023-12-07T11:28:03;99056.44;;;9.87;63.77
62833;BME280;48891;49.220;6.920;2023-12-07T11:30:32;99174.59;;;10.67;63.62
62833;BME280;48891;49.220;6.920;2023-12-07T11:32:59;99165.84;;;10.66;63.57
62833;BME280;48891;49.220;6.920;2023-12-07T11:35:25;99166.47;;;10.71;63.56
62833;BME280;48891;49.220;6.920;2023-12-07T11:38:09;99159.25;;;10.75;63.63
62833;BME280;48891;49.220;6.920;2023-12-07T11:40:41;99172.59;;;10.72;63.53
62833;BME280;48891;49.220;6.920;2023-12-07T11:43:07;99153.50;;;10.67;63.46
62833;BME280;48891;49.220;6.920;2023-12-07T11:45:48;99124.44;;;10.51;62.98
62833;BME280;48891;49.220;6.920;2023-12-07T11:48:14;99161.41;;;10.84;63.34
62833;BME280;48891;49.220;6.920;2023-12-07T11:51:05;99169.25;;;10.86;63.29
62833;BME280;48891;49.220;6.920;2023-12-07T11:53:33;99155.03;;;10.88;63.16
62833;BME280;48891;49.220;6.920;2023-12-07T11:55:59;99153.09;;;10.92;63.05
62833;BME280;48891;49.220;6.920;2023-12-07T11:58:25;99146.72;;;10.96;62.96
62833;BME280;48891;49.220;6.920;2023-12-07T12:00:52;99141.19;;;11.00;62.81
62833;BME280;48891;49.220;6.920;2023-12-07T12:03:17;99051.28;;;10.38;62.75
62833;BME280;48891;49.220;6.920;2023-12-07T12:05:43;99148.88;;;11.05;62.56
62833;BME280;48891;49.220;6.920;2023-12-07T12:08:08;99157.50;;;11.09;62.73
62833;BME280;48891;49.220;6.920;2023-12-07T12:10:34;99142.56;;;11.08;62.52
62833;BME280;48891;49.220;6.920;2023-12-07T12:13:03;99009.56;;;10.29;62.30
62833;BME280;48891;49.220;6.920;2023-12-07T12:15:29;99146.50;;;11.16;62.37
62833;BME280;48891;49.220;6.920;2023-12-07T12:17:56;99145.41;;;11.20;62.29
62833;BME280;48891;49.220;6.920;2023-12-07T12:20:21;99133.25;;;11.18;62.40
62833;BME280;48891;49.220;6.920;2023-12-07T12:22:47;99109.72;;;11.13;61.99
62833;BME280;48891;49.220;6.920;2023-12-07T12:25:12;99112.22;;;11.16;62.40
62833;BME280;48891;49.220;6.920;2023-12-07T12:27:38;99124.06;;;11.25;62.16
62833;BME280;48891;49.220;6.920;2023-12-07T12:30:04;99139.91;;;11.25;62.28
62833;BME280;48891;49.220;6.920;2023-12-07T12:32:42;99139.91;;;11.25;62.20
62833;BME280;48891;49.220;6.920;2023-12-07T12:35:08;99147.81;;;11.25;62.16
62833;BME280;48891;49.220;6.920;2023-12-07T12:37:33;99147.81;;;11.25;62.12
62833;BME280;48891;49.220;6.920;2023-12-07T12:40:07;99146.97;;;11.25;62.13
62833;BME280;48891;49.220;6.920;2023-12-07T12:42:33;99061.16;;;10.68;61.62
62833;BME280;48891;49.220;6.920;2023-12-07T12:44:59;99125.16;;;11.21;62.15
62833;BME280;48891;49.220;6.920;2023-12-07T12:47:25;99114.63;;;11.21;62.07
62833;BME280;48891;49.220;6.920;2023-12-07T12:49:50;99109.34;;;11.21;62.05
62833;BME280;48891;49.220;6.920;2023-12-07T12:52:15;99083.19;;;11.16;62.02
62833;BME280;48891;49.220;6.920;2023-12-07T12:54:43;99078.75;;;11.17;61.92
62833;BME280;48891;49.220;6.920;2023-12-07T12:57:09;99066.91;;;11.08;61.83